Time;durP1;ratioP1;P1;durP2;ratioP2;P2;SDS_P1;SDS_P2;PMS_P1;PMS_P2;Temp;Humidity;BMP_temperature;BMP_pressure;BME280_temperature;BME280_humidity;BME280_pressure;Samples;Min_cycle;Max_cycle;Signal;HPM_P1;HPM_P2
2023/01/08 00:02:07;;;;;;;0.70;0.60;;;;;;;10.42;73.89;99948.38;5118050;28;20041;-85
2023/01/08 00:04:37;;;;;;;0.30;0.30;;;;;;;10.44;73.86;99950.97;5142334;28;20649;-84
2023/01/08 00:07:08;;;;;;;0.22;0.22;;;;;;;10.38;73.91;99955.53;5120779;28;20038;-85
2023/01/08 00:09:38;;;;;;;0.20;0.20;;;;;;;10.43;73.29;99944.84;5142251;28;20113;-84
2023/01/08 00:12:09;;;;;;;0.30;0.30;;;;;;;10.42;73.75;99937.06;5108582;28;20039;-85
2023/01/08 00:14:40;;;;;;;0.40;0.40;;;;;;;10.33;73.87;99944.34;5122220;28;20177;-84
2023/01/08 00:17:10;;;;;;;0.30;0.30;;;;;;;10.30;74.23;99943.59;5121029;28;20159;-84
2023/01/08 00:19:41;;;;;;;0.45;0.45;;;;;;;10.40;73.91;99934.50;5138510;28;20038;-83
2023/01/08 00:22:12;;;;;;;0.80;0.70;;;;;;;10.38;73.69;99933.69;5111608;28;20093;-83
2023/01/08 00:24:43;;;;;;;0.20;0.20;;;;;;;10.35;73.91;99936.41;5119888;28;20047;-83
2023/01/08 00:27:13;;;;;;;0.38;0.38;;;;;;;10.42;73.84;99942.31;5105977;28;20038;-84
2023/01/08 00:29:44;;;;;;;0.20;0.20;;;;;;;10.40;73.43;99952.88;5125083;28;20118;-85
2023/01/08 00:32:14;;;;;;;0.30;0.30;;;;;;;10.46;73.61;99947.38;5119284;28;20489;-84
2023/01/08 00:34:45;;;;;;;0.57;0.57;;;;;;;10.42;73.74;99947.56;5143620;28;20026;-84
2023/01/08 00:37:18;;;;;;;0.40;0.40;;;;;;;10.43;73.33;99936.16;5106689;28;20115;-85
2023/01/08 00:39:49;;;;;;;;;;;;;;;10.43;73.73;99929.13;5119905;28;20027;-84
2023/01/08 00:42:20;;;;;;;0.25;0.25;;;;;;;10.48;73.14;99924.56;5121799;28;19945;-85
2023/01/08 00:44:50;;;;;;;0.35;0.35;;;;;;;10.45;73.88;99921.22;5105528;28;20301;-83
2023/01/08 00:47:23;;;;;;;0.38;0.38;;;;;;;10.50;73.65;99925.34;5108758;28;20042;-86
2023/01/08 00:49:54;;;;;;;;;;;;;;;10.41;73.39;99932.72;5102919;28;20046;-85
2023/01/08 00:52:27;;;;;;;0.38;0.38;;;;;;;10.45;73.17;99923.84;5122610;28;19929;-82
2023/01/08 00:54:58;;;;;;;0.20;0.20;;;;;;;10.52;73.41;99917.44;5120940;28;20031;-81
2023/01/08 00:57:37;;;;;;;1.42;1.33;;;;;;;10.53;73.35;99913.91;5123948;28;20501;-83
2023/01/08 01:00:11;;;;;;;0.55;0.55;;;;;;;10.47;73.37;99914.13;5138753;28;20548;-86
2023/01/08 01:02:42;;;;;;;0.20;0.20;;;;;;;10.44;74.02;99919.50;5107706;28;20063;-84
2023/01/08 01:05:14;;;;;;;0.98;0.80;;;;;;;10.51;73.43;99920.97;5122668;28;20124;-85
2023/01/08 01:07:46;;;;;;;0.50;0.50;;;;;;;10.55;73.64;99909.41;5104131;28;20039;-86
2023/01/08 01:10:16;;;;;;;0.20;0.20;;;;;;;10.51;73.70;99899.97;5107317;28;20069;-85
2023/01/08 01:12:47;;;;;;;0.20;0.20;;;;;;;10.53;73.52;99906.03;5118837;28;20031;-85
2023/01/08 01:15:18;;;;;;;0.20;0.20;;;;;;;10.51;73.63;99913.94;5115636;28;20034;-84
2023/01/08 01:17:48;;;;;;;0.30;0.30;;;;;;;10.55;73.11;99912.03;5121578;28;20030;-85
2023/01/08 01:20:19;;;;;;;0.30;0.30;;;;;;;10.56;73.57;99905.88;5118331;28;20047;-85
2023/01/08 01:22:50;;;;;;;0.50;0.45;;;;;;;10.58;73.53;99913.72;5104459;29;20055;-84
2023/01/08 01:25:20;;;;;;;0.40;0.40;;;;;;;10.60;73.47;99920.59;5117661;28;20784;-85
2023/01/08 01:27:51;;;;;;;0.20;0.20;;;;;;;10.61;73.28;99916.19;5129145;28;20432;-85
2023/01/08 01:30:22;;;;;;;0.40;0.40;;;;;;;10.57;73.20;99917.25;5099360;28;20031;-85
2023/01/08 01:32:52;;;;;;;0.20;0.20;;;;;;;10.66;73.16;99911.63;5116519;28;20039;-86
2023/01/08 01:35:23;;;;;;;0.30;0.30;;;;;;;10.66;73.32;99917.72;5102084;28;20556;-86
2023/01/08 01:37:53;;;;;;;0.32;0.32;;;;;;;10.58;73.26;99917.19;5106704;28;20118;-85
2023/01/08 01:40:24;;;;;;;0.32;0.32;;;;;;;10.60;73.35;99909.25;5119064;28;20039;-85
2023/01/08 01:42:55;;;;;;;0.68;0.68;;;;;;;10.52;73.61;99906.94;5113961;28;20035;-85
2023/01/08 01:45:26;;;;;;;0.65;0.65;;;;;;;10.53;73.21;99909.50;5118419;28;20041;-85
2023/01/08 01:48:02;;;;;;;0.20;0.20;;;;;;;10.49;73.26;99912.28;5100050;28;20027;-85
2023/01/08 01:50:45;;;;;;;0.77;0.77;;;;;;;10.57;73.26;99907.59;5117215;28;20051;-84
2023/01/08 01:53:26;;;;;;;1.10;1.00;;;;;;;10.74;73.09;99887.69;5099123;28;20332;-85
2023/01/08 01:55:57;;;;;;;0.95;0.95;;;;;;;10.59;72.95;99900.53;5117414;28;20035;-85
2023/01/08 01:58:31;;;;;;;0.20;0.20;;;;;;;10.64;73.17;99900.34;5120166;28;20031;-85
2023/01/08 02:01:02;;;;;;;;;;;;;;;10.64;73.09;99895.94;5114574;28;20035;-85
2023/01/08 02:03:36;;;;;;;0.22;0.22;;;;;;;10.64;73.12;99888.06;5126873;28;19923;-86
2023/01/08 02:06:35;;;;;;;0.30;0.30;;;;;;;10.66;73.01;99891.50;5100055;28;20130;-85
2023/01/08 02:09:21;;;;;;;0.28;0.28;;;;;;;10.69;72.99;99888.75;5127991;28;20124;-85
2023/01/08 02:15:18;;;;;;;0.40;0.40;;;;;;;10.66;73.26;99872.28;5127201;28;20051;-85
2023/01/08 02:17:59;;;;;;;1.02;0.82;;;;;;;10.57;73.50;99873.50;5106613;29;20491;-85
2023/01/08 02:20:56;;;;;;;0.85;0.85;;;;;;;10.61;73.49;99867.22;5114767;28;20051;-86
2023/01/08 02:23:45;;;;;;;0.30;0.30;;;;;;;10.60;73.22;99873.38;5107591;29;20030;-85
2023/01/08 02:26:27;;;;;;;0.47;0.47;;;;;;;10.67;72.93;99866.97;5119860;28;20154;-84
2023/01/08 02:29:02;;;;;;;0.20;0.20;;;;;;;10.61;72.96;99861.09;5099827;28;20035;-85
2023/01/08 02:31:35;;;;;;;0.40;0.40;;;;;;;10.61;73.16;99854.09;5118204;28;20062;-87
2023/01/08 02:34:06;;;;;;;0.35;0.35;;;;;;;10.65;73.47;99846.97;5107199;28;20097;-85
2023/01/08 02:36:42;;;;;;;0.40;0.40;;;;;;;10.68;72.96;99855.56;5119970;28;20146;-85
2023/01/08 02:39:35;;;;;;;0.30;0.30;;;;;;;10.77;72.76;99849.06;5121743;28;20041;-85
2023/01/08 02:42:15;;;;;;;0.40;0.40;;;;;;;10.59;72.72;99836.69;5116244;28;20069;-86
2023/01/08 02:45:36;;;;;;;0.38;0.38;;;;;;;10.62;73.60;99845.28;5111729;29;20051;-84
2023/01/08 02:49:00;;;;;;;0.30;0.30;;;;;;;10.62;72.85;99834.81;5080690;29;20445;-85
2023/01/08 02:51:36;;;;;;;0.30;0.30;;;;;;;10.67;73.10;99835.47;5045269;29;20239;-84
2023/01/08 02:54:15;;;;;;;0.30;0.30;;;;;;;10.68;73.21;99831.06;5067394;29;20036;-85
2023/01/08 02:56:50;;;;;;;0.30;0.30;;;;;;;10.55;72.73;99813.25;5099176;28;20569;-86
2023/01/08 02:59:23;;;;;;;0.50;0.50;;;;;;;10.65;73.27;99821.56;5100840;28;20516;-85
2023/01/08 03:01:54;;;;;;;0.30;0.30;;;;;;;10.57;73.12;99826.28;5105112;28;20063;-86
2023/01/08 03:04:27;;;;;;;0.73;0.60;;;;;;;10.60;72.95;99815.66;5109639;29;20038;-86
2023/01/08 03:06:57;;;;;;;0.30;0.30;;;;;;;10.56;72.91;99808.84;5120861;28;20477;-85
2023/01/08 03:09:31;;;;;;;0.95;0.88;;;;;;;10.55;73.04;99800.13;5095987;29;20055;-84
2023/01/08 03:12:21;;;;;;;0.30;0.30;;;;;;;10.59;72.88;99800.84;5101354;28;20182;-84
2023/01/08 03:14:57;;;;;;;0.95;0.90;;;;;;;10.55;72.98;99797.50;5135159;28;20029;-85
2023/01/08 03:17:36;;;;;;;1.10;0.85;;;;;;;10.55;73.11;99799.25;5103268;29;20549;-84
2023/01/08 03:20:11;;;;;;;0.20;0.20;;;;;;;10.51;72.83;99800.31;5106625;28;20126;-85
2023/01/08 03:22:45;;;;;;;0.32;0.32;;;;;;;10.58;72.94;99796.50;5129559;28;20039;-84
2023/01/08 03:25:19;;;;;;;0.20;0.20;;;;;;;10.58;73.00;99811.41;5102393;28;20050;-85
2023/01/08 03:28:01;;;;;;;0.30;0.30;;;;;;;10.52;72.91;99802.88;5118036;28;20099;-85
2023/01/08 03:30:33;;;;;;;0.20;0.20;;;;;;;10.53;73.35;99814.22;5104074;28;20078;-85
2023/01/08 03:33:08;;;;;;;0.30;0.30;;;;;;;10.61;72.74;99812.13;5130310;28;20042;-85
2023/01/08 03:35:42;;;;;;;0.28;0.28;;;;;;;10.46;73.17;99810.13;5119954;28;20099;-85
2023/01/08 03:38:24;;;;;;;0.30;0.30;;;;;;;10.53;72.76;99798.50;5112711;28;20042;-84
2023/01/08 03:41:05;;;;;;;0.25;0.25;;;;;;;10.52;73.30;99791.53;5120814;28;20031;-85
2023/01/08 03:43:36;;;;;;;0.20;0.20;;;;;;;10.54;73.36;99789.69;5103614;29;20031;-85
2023/01/08 03:46:12;;;;;;;0.25;0.25;;;;;;;10.54;73.63;99790.53;5128206;28;20330;-85
2023/01/08 03:48:44;;;;;;;2.60;2.05;;;;;;;10.51;73.79;99787.19;5121529;28;20039;-84
2023/01/08 03:51:15;;;;;;;0.20;0.20;;;;;;;10.50;73.69;99791.56;5132839;28;20768;-85
2023/01/08 03:53:46;;;;;;;0.20;0.20;;;;;;;10.54;72.97;99790.53;5102381;29;20019;-84
2023/01/08 03:56:16;;;;;;;0.20;0.20;;;;;;;10.50;73.46;99798.59;5118974;28;20310;-85
2023/01/08 03:58:47;;;;;;;0.20;0.20;;;;;;;10.53;73.29;99785.38;5104710;28;20031;-86
2023/01/08 04:01:17;;;;;;;0.20;0.20;;;;;;;10.53;73.37;99788.84;5136237;28;20039;-86
2023/01/08 04:03:48;;;;;;;0.25;0.25;;;;;;;10.54;73.05;99789.69;5108039;28;20123;-84
2023/01/08 04:06:18;;;;;;;0.20;0.20;;;;;;;10.45;73.22;99784.84;5122290;28;20043;-85
2023/01/08 04:08:49;;;;;;;0.30;0.30;;;;;;;10.51;73.28;99776.72;5134586;28;20093;-85
2023/01/08 04:11:20;;;;;;;0.20;0.20;;;;;;;10.45;74.13;99766.47;5122271;28;20031;-86
2023/01/08 04:13:50;;;;;;;0.20;0.20;;;;;;;10.54;73.54;99756.44;5122325;28;20091;-84
2023/01/08 04:16:21;;;;;;;0.20;0.20;;;;;;;10.51;73.97;99763.59;5104504;28;20035;-85
2023/01/08 04:18:52;;;;;;;0.75;0.75;;;;;;;10.49;73.58;99770.66;5120177;28;20043;-87
2023/01/08 04:21:22;;;;;;;0.30;0.30;;;;;;;10.52;73.48;99765.31;5111303;28;20050;-85
2023/01/08 04:23:53;;;;;;;0.40;0.40;;;;;;;10.43;73.39;99769.16;5106781;29;20023;-85
2023/01/08 04:26:24;;;;;;;1.45;0.50;;;;;;;10.41;73.22;99762.28;5108850;28;20047;-85
2023/01/08 04:28:55;;;;;;;0.30;0.30;;;;;;;10.36;73.49;99765.03;5119833;28;20151;-85
2023/01/08 04:31:25;;;;;;;0.30;0.30;;;;;;;10.35;72.81;99774.69;5105964;29;20074;-84
2023/01/08 04:33:56;;;;;;;0.40;0.40;;;;;;;10.45;73.32;99772.56;5106852;28;20042;-86
2023/01/08 04:36:26;;;;;;;0.20;0.20;;;;;;;10.38;73.03;99769.34;5106857;28;20039;-84
2023/01/08 04:38:57;;;;;;;0.30;0.30;;;;;;;10.37;72.33;99772.03;5107523;28;20143;-86
2023/01/08 04:41:27;;;;;;;0.47;0.47;;;;;;;10.42;72.51;99764.81;5118739;28;20078;-85
2023/01/08 04:43:58;;;;;;;0.30;0.30;;;;;;;10.42;72.38;99763.97;5136111;28;20030;-85
2023/01/08 04:46:28;;;;;;;0.30;0.30;;;;;;;10.47;72.64;99746.28;5116244;28;20107;-85
2023/01/08 04:48:59;;;;;;;0.20;0.20;;;;;;;10.42;72.75;99743.00;5123590;28;20039;-85
2023/01/08 04:51:29;;;;;;;0.20;0.20;;;;;;;10.53;72.50;99748.66;5115276;28;20708;-84
2023/01/08 04:54:00;;;;;;;0.30;0.30;;;;;;;10.44;72.57;99751.66;5132280;28;20062;-85
2023/01/08 04:56:30;;;;;;;0.20;0.20;;;;;;;10.43;72.95;99752.56;5105188;28;20058;-84
2023/01/08 04:59:01;;;;;;;0.20;0.20;;;;;;;10.45;72.71;99756.00;5119940;28;20051;-84
2023/01/08 05:01:32;;;;;;;0.20;0.20;;;;;;;10.39;72.26;99754.47;5115411;28;20068;-85
2023/01/08 05:04:04;;;;;;;0.30;0.30;;;;;;;10.40;72.28;99756.19;5123977;28;20035;-85
2023/01/08 05:06:34;;;;;;;0.35;0.35;;;;;;;10.46;72.19;99749.81;5118305;28;20047;-85
2023/01/08 05:09:05;;;;;;;0.20;0.20;;;;;;;10.39;71.79;99744.81;5107479;28;20118;-85
2023/01/08 05:11:36;;;;;;;0.30;0.30;;;;;;;10.32;71.57;99748.59;5132949;28;20035;-85
2023/01/08 05:14:06;;;;;;;1.35;1.05;;;;;;;10.39;72.42;99736.97;5122741;28;21072;-85
2023/01/08 05:16:37;;;;;;;0.22;0.22;;;;;;;10.34;71.90;99738.03;5102056;28;20094;-86
2023/01/08 05:19:08;;;;;;;0.20;0.20;;;;;;;10.36;71.55;99731.84;5135843;28;20039;-85
2023/01/08 05:21:38;;;;;;;0.20;0.20;;;;;;;10.39;72.01;99739.59;5098283;28;20038;-85
2023/01/08 05:24:09;;;;;;;0.45;0.45;;;;;;;10.42;72.31;99735.97;5108755;28;20071;-82
2023/01/08 05:26:40;;;;;;;0.20;0.20;;;;;;;10.44;72.06;99730.69;5131272;28;20031;-84
2023/01/08 05:29:10;;;;;;;0.20;0.20;;;;;;;10.43;72.13;99735.06;5104259;28;20257;-84
2023/01/08 05:31:41;;;;;;;0.20;0.20;;;;;;;10.44;72.34;99734.16;5102498;29;20198;-83
2023/01/08 05:34:11;;;;;;;29.30;1.15;;;;;;;10.49;72.06;99729.56;5106752;29;20268;-83
2023/01/08 05:36:42;;;;;;;0.32;0.32;;;;;;;10.47;71.88;99733.16;5128755;28;20039;-86
2023/01/08 05:39:12;;;;;;;0.20;0.20;;;;;;;10.45;71.39;99727.16;5116722;28;20513;-85
2023/01/08 05:41:43;;;;;;;0.30;0.30;;;;;;;10.41;71.95;99715.06;5117403;28;20079;-86
2023/01/08 05:44:13;;;;;;;0.40;0.40;;;;;;;10.43;72.10;99719.31;5123376;28;20666;-86
2023/01/08 05:46:44;;;;;;;0.20;0.20;;;;;;;10.36;71.32;99715.22;5105477;29;20031;-84
2023/01/08 05:49:14;;;;;;;0.20;0.20;;;;;;;10.25;71.51;99718.31;5118644;28;20035;-85
2023/01/08 05:51:45;;;;;;;1.58;0.70;;;;;;;10.20;71.65;99722.91;5113678;28;20122;-86
2023/01/08 05:54:15;;;;;;;0.20;0.20;;;;;;;10.17;71.56;99723.84;5108385;28;20062;-85
2023/01/08 05:56:46;;;;;;;0.20;0.20;;;;;;;10.27;72.23;99719.09;5102406;29;20039;-84
2023/01/08 05:59:17;;;;;;;1.05;0.57;;;;;;;10.30;71.46;99723.38;5121750;28;20054;-84
2023/01/08 06:01:47;;;;;;;0.25;0.25;;;;;;;10.14;71.72;99723.13;5115107;28;20050;-85
2023/01/08 06:04:18;;;;;;;0.52;0.52;;;;;;;10.21;71.58;99721.97;5107467;28;20055;-85
2023/01/08 06:06:48;;;;;;;0.20;0.20;;;;;;;10.18;71.53;99725.56;5106873;29;20533;-83
2023/01/08 06:09:19;;;;;;;0.20;0.20;;;;;;;10.11;71.88;99729.34;5119227;28;20337;-84
2023/01/08 06:11:49;;;;;;;0.40;0.40;;;;;;;10.19;72.12;99715.94;5106607;28;20036;-84
2023/01/08 06:14:20;;;;;;;0.30;0.30;;;;;;;10.22;71.70;99721.03;5114515;28;20035;-86
2023/01/08 06:16:50;;;;;;;0.20;0.20;;;;;;;10.26;71.44;99719.16;5097701;29;20035;-86
2023/01/08 06:19:21;;;;;;;0.20;0.20;;;;;;;10.19;71.64;99747.41;5121952;28;20039;-86
2023/01/08 06:21:52;;;;;;;0.20;0.20;;;;;;;9.95;73.39;99799.91;5122237;28;20126;-85
2023/01/08 06:24:25;;;;;;;0.20;0.20;;;;;;;9.77;74.93;99810.19;5109688;28;20031;-85
2023/01/08 06:26:55;;;;;;;;;;;;;;;9.76;74.54;99803.22;5114814;28;20032;-84
2023/01/08 06:29:26;;;;;;;0.30;0.30;;;;;;;9.56;73.92;99800.50;5114161;28;19925;-86
2023/01/08 06:31:57;;;;;;;0.30;0.30;;;;;;;9.52;74.82;99804.16;5113549;28;20048;-85
2023/01/08 06:34:27;;;;;;;0.30;0.30;;;;;;;9.45;74.60;99809.63;5118060;29;20035;-85
2023/01/08 06:36:58;;;;;;;0.30;0.30;;;;;;;9.29;75.58;99809.31;5112530;28;20074;-84
2023/01/08 06:39:28;;;;;;;0.50;0.50;;;;;;;9.44;74.52;99807.03;5117950;28;20031;-84
2023/01/08 06:41:59;;;;;;;0.52;0.52;;;;;;;9.24;75.42;99794.69;5116168;28;20111;-85
2023/01/08 06:44:29;;;;;;;0.30;0.30;;;;;;;9.47;74.80;99786.00;5119284;28;20031;-85
2023/01/08 06:47:00;;;;;;;0.30;0.30;;;;;;;9.54;74.49;99776.16;5113080;28;20036;-85
2023/01/08 06:49:31;;;;;;;0.20;0.20;;;;;;;9.70;73.68;99782.50;5105189;28;20027;-84
2023/01/08 06:52:01;;;;;;;0.20;0.20;;;;;;;9.79;73.27;99788.31;5129462;28;20068;-85
2023/01/08 06:54:34;;;;;;;0.40;0.40;;;;;;;9.75;73.03;99793.66;5113916;28;20549;-85
2023/01/08 06:57:05;;;;;;;0.30;0.30;;;;;;;9.62;72.93;99795.06;5097264;28;20036;-86
2023/01/08 06:59:35;;;;;;;0.20;0.20;;;;;;;9.67;73.38;99793.09;5118913;28;20038;-84
2023/01/08 07:02:12;;;;;;;0.20;0.20;;;;;;;9.65;72.93;99788.84;5129695;28;20042;-86
2023/01/08 07:04:43;;;;;;;0.30;0.30;;;;;;;9.74;72.84;99796.34;5100946;29;20442;-84
2023/01/08 07:07:14;;;;;;;0.85;0.85;;;;;;;9.87;72.60;99801.97;5106448;28;20050;-85
2023/01/08 07:09:44;;;;;;;0.40;0.40;;;;;;;9.67;73.00;99802.72;5097086;29;20043;-85
2023/01/08 07:12:15;;;;;;;0.20;0.20;;;;;;;9.67;72.36;99813.22;5109953;28;20078;-85
2023/01/08 07:14:46;;;;;;;0.50;0.50;;;;;;;9.77;72.10;99804.94;5112198;28;20039;-85
2023/01/08 07:17:16;;;;;;;0.20;0.20;;;;;;;9.60;72.51;99791.63;5103981;28;20062;-84
2023/01/08 07:19:47;;;;;;;0.30;0.30;;;;;;;9.64;72.22;99787.97;5132710;28;20039;-85
2023/01/08 07:22:19;;;;;;;0.65;0.65;;;;;;;9.74;72.29;99791.94;5113716;28;20459;-85
2023/01/08 07:24:49;;;;;;;0.50;0.50;;;;;;;9.63;72.66;99790.66;5096680;29;20035;-85
2023/01/08 07:27:20;;;;;;;0.82;0.82;;;;;;;9.56;72.07;99796.13;5114533;28;20069;-86
2023/01/08 07:29:50;;;;;;;0.40;0.40;;;;;;;9.64;72.52;99806.31;5094420;29;20134;-87
2023/01/08 07:32:21;;;;;;;0.30;0.30;;;;;;;9.54;72.66;99802.34;5097716;28;20605;-85
2023/01/08 07:34:53;;;;;;;0.30;0.30;;;;;;;9.68;72.85;99804.41;5098629;28;20038;-88
2023/01/08 07:37:25;;;;;;;0.32;0.32;;;;;;;9.66;72.76;99796.63;5135232;28;20040;-86
2023/01/08 07:39:55;;;;;;;0.30;0.30;;;;;;;9.67;72.46;99794.88;5100320;28;20050;-86
2023/01/08 07:42:26;;;;;;;0.20;0.20;;;;;;;9.66;72.70;99794.00;5107293;29;20035;-85
2023/01/08 07:44:56;;;;;;;0.50;0.50;;;;;;;9.76;72.35;99797.97;5115819;28;20073;-86
2023/01/08 07:47:27;;;;;;;0.75;0.75;;;;;;;9.70;72.79;99797.34;5132504;28;20066;-88
2023/01/08 07:49:57;;;;;;;0.20;0.20;;;;;;;9.74;72.56;99789.31;5117709;28;20165;-86
2023/01/08 07:52:28;;;;;;;0.20;0.20;;;;;;;9.69;72.69;99778.19;5102065;28;20251;-86
2023/01/08 07:54:58;;;;;;;0.20;0.20;;;;;;;9.67;72.90;99781.78;5103148;28;20545;-88
2023/01/08 07:57:29;;;;;;;0.30;0.30;;;;;;;9.69;72.72;99785.16;5119335;28;20023;-87
2023/01/08 07:59:59;;;;;;;0.20;0.20;;;;;;;9.64;72.94;99780.09;5100588;28;20035;-86
2023/01/08 08:02:30;;;;;;;0.28;0.28;;;;;;;9.59;72.14;99775.03;5112505;29;20147;-86
2023/01/08 08:05:00;;;;;;;0.30;0.30;;;;;;;9.61;72.45;99778.47;5117900;28;20379;-88
2023/01/08 08:07:30;;;;;;;0.30;0.30;;;;;;;9.55;71.91;99775.22;5099860;29;20166;-86
2023/01/08 08:10:03;;;;;;;0.40;0.40;;;;;;;9.52;71.93;99778.81;5097189;28;20034;-88
2023/01/08 08:12:33;;;;;;;1.30;1.20;;;;;;;9.55;72.08;99768.22;5112762;28;20062;-86
2023/01/08 08:15:04;;;;;;;0.25;0.25;;;;;;;9.48;71.42;99766.75;5098606;28;20258;-87
2023/01/08 08:17:35;;;;;;;0.30;0.30;;;;;;;9.50;71.64;99770.19;5106233;29;20038;-84
2023/01/08 08:20:06;;;;;;;0.30;0.30;;;;;;;9.42;70.39;99777.47;5099809;28;20024;-84
2023/01/08 08:22:36;;;;;;;0.20;0.20;;;;;;;9.28;71.77;99778.81;5103998;29;20031;-83
2023/01/08 08:25:10;;;;;;;0.30;0.30;;;;;;;9.43;71.02;99780.03;5119367;28;20027;-84
2023/01/08 08:27:41;;;;;;;0.20;0.20;;;;;;;9.44;71.41;99776.50;5120615;28;20033;-84
2023/01/08 08:30:12;;;;;;;0.57;0.57;;;;;;;9.44;71.51;99766.03;5101243;28;20043;-83
2023/01/08 08:32:43;;;;;;;0.43;0.43;;;;;;;9.38;71.52;99758.38;5122677;28;20517;-85
2023/01/08 08:35:13;;;;;;;0.20;0.20;;;;;;;9.36;71.14;99755.00;5122775;28;20058;-84
2023/01/08 08:37:44;;;;;;;0.20;0.20;;;;;;;9.36;71.19;99752.38;5122541;28;20031;-85
2023/01/08 08:40:15;;;;;;;0.52;0.52;;;;;;;9.33;70.94;99757.72;5123463;28;20057;-85
2023/01/08 08:42:45;;;;;;;1.17;1.05;;;;;;;9.25;71.31;99755.41;5115942;28;20027;-84
2023/01/08 08:45:16;;;;;;;1.67;1.58;;;;;;;9.19;71.31;99760.84;5120688;28;20054;-82
2023/01/08 08:47:46;;;;;;;0.30;0.30;;;;;;;9.37;71.49;99756.69;5102823;29;20038;-83
2023/01/08 08:50:18;;;;;;;0.32;0.32;;;;;;;9.34;71.71;99742.88;5140178;28;20075;-83
2023/01/08 08:52:48;;;;;;;1.35;1.20;;;;;;;9.38;71.46;99747.06;5097838;29;20043;-84
2023/01/08 08:55:19;;;;;;;1.15;0.80;;;;;;;9.20;72.14;99746.00;5129916;28;20031;-83
2023/01/08 08:57:49;;;;;;;0.60;0.50;;;;;;;9.17;71.80;99731.28;5122833;29;20114;-83
2023/01/08 09:00:20;;;;;;;0.20;0.20;;;;;;;9.20;72.06;99730.28;5118896;29;20050;-83
2023/01/08 09:02:50;;;;;;;0.30;0.30;;;;;;;9.07;71.99;99735.97;5104325;29;20019;-84
2023/01/08 09:05:21;;;;;;;0.43;0.43;;;;;;;9.06;72.18;99741.25;5107250;28;20043;-84
2023/01/08 09:07:53;;;;;;;0.50;0.50;;;;;;;9.19;72.18;99726.81;5124012;28;20041;-83
2023/01/08 09:10:23;;;;;;;0.30;0.30;;;;;;;9.24;72.33;99731.88;5121394;28;20035;-83
2023/01/08 09:12:54;;;;;;;0.50;0.50;;;;;;;9.22;72.62;99726.69;5101738;29;20039;-82
2023/01/08 09:15:24;;;;;;;0.30;0.30;;;;;;;9.32;72.02;99727.19;5098027;28;20130;-83
2023/01/08 09:17:56;;;;;;;0.30;0.30;;;;;;;9.28;72.18;99723.00;5104801;29;20038;-83
2023/01/08 09:20:26;;;;;;;0.20;0.20;;;;;;;9.24;73.27;99716.16;5104519;29;20039;-83
2023/01/08 09:22:58;;;;;;;0.50;0.50;;;;;;;9.31;72.55;99722.88;5133340;28;20863;-83
2023/01/08 09:25:30;;;;;;;0.90;0.85;;;;;;;9.35;72.66;99731.47;5097174;29;20600;-82
2023/01/08 09:28:02;;;;;;;2.38;1.00;;;;;;;9.27;72.80;99731.78;5109968;28;20049;-84
2023/01/08 09:30:33;;;;;;;7.35;2.30;;;;;;;9.27;73.11;99729.16;5129709;28;20131;-83
2023/01/08 09:33:04;;;;;;;0.55;0.55;;;;;;;9.38;72.85;99726.97;5131325;28;20127;-83
2023/01/08 09:35:35;;;;;;;0.40;0.40;;;;;;;9.36;72.38;99731.44;5137911;28;20039;-83
2023/01/08 09:38:05;;;;;;;0.40;0.40;;;;;;;9.41;72.11;99734.72;5138399;28;20122;-84
2023/01/08 09:41:09;;;;;;;0.20;0.20;;;;;;;9.43;72.39;99732.91;5105648;28;20035;-83
2023/01/08 09:43:44;;;;;;;0.63;0.63;;;;;;;9.42;72.40;99735.59;5120446;28;20445;-83
2023/01/08 09:46:18;;;;;;;0.30;0.30;;;;;;;9.48;71.65;99742.31;5101991;29;20043;-84
2023/01/08 09:48:50;;;;;;;0.60;0.60;;;;;;;9.55;72.35;99749.03;5099172;29;20502;-83
2023/01/08 09:51:22;;;;;;;0.40;0.40;;;;;;;9.57;72.55;99744.59;5105544;28;20573;-84
2023/01/08 09:53:56;;;;;;;0.30;0.30;;;;;;;9.64;72.30;99724.25;5099741;29;20794;-83
2023/01/08 09:56:27;;;;;;;0.30;0.30;;;;;;;9.61;72.05;99720.00;5126188;28;20110;-83
2023/01/08 09:59:00;;;;;;;17.75;0.80;;;;;;;9.66;72.38;99718.03;5124849;28;20178;-83
2023/01/08 10:01:35;;;;;;;0.30;0.30;;;;;;;9.67;72.16;99704.03;5111256;28;20042;-83
2023/01/08 10:04:22;;;;;;;0.63;0.52;;;;;;;9.73;72.19;99709.03;5108659;28;20027;-83
2023/01/08 10:07:20;;;;;;;0.40;0.40;;;;;;;9.75;72.12;99695.91;5111344;28;20046;-84
2023/01/08 10:09:52;;;;;;;0.35;0.35;;;;;;;9.75;71.68;99691.50;5110053;28;20257;-83
2023/01/08 10:12:30;;;;;;;0.57;0.57;;;;;;;9.77;71.52;99692.28;5092293;28;1126330;-85
2023/01/08 10:15:10;;;;;;;0.57;0.57;;;;;;;9.80;71.63;99677.34;5116804;28;20042;-84
2023/01/08 10:17:47;;;;;;;0.63;0.63;;;;;;;9.86;71.40;99671.88;5100138;29;20655;-85
2023/01/08 10:20:21;;;;;;;2.65;0.90;;;;;;;9.89;71.86;99671.72;5117219;28;20174;-86
2023/01/08 10:22:58;;;;;;;0.20;0.20;;;;;;;9.88;71.38;99667.41;5122632;28;20498;-85
2023/01/08 10:25:28;;;;;;;0.40;0.40;;;;;;;9.89;71.08;99662.13;5112100;28;20168;-83
2023/01/08 10:28:00;;;;;;;0.40;0.40;;;;;;;9.98;71.37;99665.28;5117401;28;20035;-84
2023/01/08 10:30:34;;;;;;;0.20;0.20;;;;;;;9.89;70.68;99654.25;5108894;28;20121;-84
2023/01/08 10:33:17;;;;;;;;;;;;;;;9.86;71.21;99651.75;5113577;28;20051;-85
2023/01/08 10:35:59;;;;;;;0.30;0.30;;;;;;;9.91;71.14;99648.94;5113332;28;19922;-82
2023/01/08 10:38:38;;;;;;;0.57;0.57;;;;;;;9.83;71.01;99641.41;5100719;29;20310;-84
2023/01/08 10:41:12;;;;;;;0.20;0.20;;;;;;;9.88;71.09;99642.06;5092937;28;20387;-83
2023/01/08 10:43:52;;;;;;;0.20;0.20;;;;;;;9.96;71.51;99636.50;5115892;28;20094;-83
2023/01/08 10:46:24;;;;;;;0.88;0.88;;;;;;;9.88;70.50;99630.72;5109365;28;20739;-82
2023/01/08 10:48:59;;;;;;;0.30;0.30;;;;;;;9.99;71.27;99631.13;5110683;29;20039;-82
2023/01/08 10:51:31;;;;;;;0.80;0.52;;;;;;;10.07;70.82;99623.78;5117649;28;20036;-84
2023/01/08 10:54:14;;;;;;;15.73;1.57;;;;;;;10.07;71.31;99613.31;5109179;29;20038;-82
2023/01/08 10:56:44;;;;;;;0.28;0.28;;;;;;;10.09;70.94;99615.84;5112915;28;20288;-85
2023/01/08 10:59:23;;;;;;;0.28;0.28;;;;;;;10.14;70.92;99598.19;5124262;28;20031;-83
2023/01/08 11:01:56;;;;;;;4.63;0.73;;;;;;;10.20;71.52;99610.19;5118634;28;20042;-87
2023/01/08 11:04:33;;;;;;;0.50;0.50;;;;;;;10.22;71.47;99605.69;5120144;28;20096;-85
2023/01/08 11:07:05;;;;;;;0.75;0.75;;;;;;;10.28;71.50;99587.09;5113381;28;20097;-84
2023/01/08 11:09:46;;;;;;;0.80;0.80;;;;;;;10.38;71.73;99587.56;5122518;28;20122;-86
2023/01/08 11:12:38;;;;;;;0.55;0.55;;;;;;;10.47;72.10;99583.66;5119076;28;20058;-85
2023/01/08 11:15:17;;;;;;;1.55;1.30;;;;;;;10.38;70.45;99574.47;5105488;28;20045;-84
2023/01/08 11:17:48;;;;;;;0.30;0.30;;;;;;;10.38;70.20;99571.84;5119670;28;20027;-84
2023/01/08 11:20:28;;;;;;;0.20;0.20;;;;;;;10.43;70.22;99569.00;5123354;28;20035;-85
2023/01/08 11:23:16;;;;;;;0.20;0.20;;;;;;;10.44;70.71;99578.59;5117584;28;20035;-84
2023/01/08 11:26:04;;;;;;;0.20;0.20;;;;;;;10.46;69.97;99571.47;5121292;28;20543;-84
2023/01/08 11:28:57;;;;;;;0.50;0.50;;;;;;;10.52;70.01;99571.22;5138388;28;20034;-84
2023/01/08 11:32:07;;;;;;;0.22;0.22;;;;;;;10.44;69.99;99568.09;5124437;28;20042;-86
2023/01/08 11:34:52;;;;;;;0.20;0.20;;;;;;;10.48;70.16;99564.41;5133906;28;20053;-84
2023/01/08 11:37:30;;;;;;;2.25;1.15;;;;;;;10.52;70.51;99561.56;5118039;28;20042;-84
2023/01/08 11:40:02;;;;;;;0.32;0.32;;;;;;;10.48;69.27;99561.78;5101440;28;20102;-84
2023/01/08 11:42:32;;;;;;;0.20;0.20;;;;;;;10.48;68.50;99575.75;5114827;28;20027;-83
2023/01/08 11:45:23;;;;;;;0.20;0.20;;;;;;;10.35;68.21;99585.91;5117881;28;20125;-86
2023/01/08 11:48:09;;;;;;;0.40;0.40;;;;;;;10.12;68.56;99588.69;5110288;29;20051;-84
2023/01/08 11:50:58;;;;;;;0.22;0.22;;;;;;;9.81;70.46;99574.25;5117652;28;20043;-83
2023/01/08 11:53:40;;;;;;;0.30;0.30;;;;;;;9.71;70.80;99569.41;5117677;28;20027;-83
2023/01/08 11:56:16;;;;;;;0.20;0.20;;;;;;;9.68;70.71;99566.06;5111875;28;20035;-84
2023/01/08 11:59:37;;;;;;;0.32;0.32;;;;;;;9.53;70.92;99564.97;5133869;28;20032;-84
2023/01/08 12:02:17;;;;;;;0.20;0.20;;;;;;;9.67;70.67;99573.09;5063809;29;20043;-85
2023/01/08 12:04:58;;;;;;;0.20;0.20;;;;;;;9.61;70.71;99560.25;5105098;29;20110;-83
2023/01/08 12:07:35;;;;;;;0.20;0.20;;;;;;;9.71;70.61;99553.69;5125143;28;20062;-85
2023/01/08 12:10:26;;;;;;;0.20;0.20;;;;;;;9.76;71.53;99556.13;5141815;28;20059;-86
2023/01/08 12:13:28;;;;;;;0.20;0.20;;;;;;;9.91;70.91;99545.00;5051769;29;20300;-85
2023/01/08 12:16:16;;;;;;;0.30;0.30;;;;;;;10.00;71.03;99543.75;5095832;28;20036;-83